Dupage Airport
KDPA : rendu visible

Aérodrome :











RETROUVEZ-NOUS SUR...

 
LOGIN :

S'inscrire | Disclaimer

   EN    FR    IT 

 









Légende :    VFR   VFR Marginal   IFR   IFR Intensif   IFR Très Intensif
Visi : 
Plafond : 
>= 8 km
>= 3000ft
5 à 8 km
1000 à 3000 ft
1500m à 5 km
500 à 1000 ft
800 à 1500m
200 à 500 ft
< 800m
< 200 ft
Symboles :   Orages  Brouillard  Fortes neiges  Fortes précipitations  Vent > 20 kt






- Altitude de l'aérodrome : 759 ft


KDPA - Dupage

DERNIER METAR :
  • 190052Z 27026G39KT 9SM BKN022 OVC044 M11/M15 A2996 RMK AO2 PK WND 28040/0042 UPB08E31SNE08B31E51 PRESRR SLP155 P0000 T11061150

METARs EXPIRÉS :
  • 182352Z 27016G26KT 4SM -SN OVC021 M10/M13 A2992 RMK AO2 PK WND 27035/2259 SLP143 P0000 60000 T11001133 10011 21100 51044
  • 182252Z 26022G32KT 5SM -SN OVC021 M09/M13 A2987 RMK AO2 PK WND 26044/2212 SLP127 P0000 T10891128
  • 182224Z 26026G39KT 4SM -SN OVC021 M08/M12 A2986 RMK AO2 PK WND 26044/2212 P0000 T10831122

TAF KDPA
Valide du 19 à 00h jusqu'au 20 à 00h UTC


182327Z 1900/1924 27022G32KT 6SM -SHSN BKN015 OVC025
FM190400 28015G25KT P6SM BKN020
FM191500 31012KT P6SM BKN020



MET'MAP, la Météo Aéronautique d'un coup d'oeil ! - Copyright ORBIFLY Décembre 2007 - Disclaimer

ORBIFLY MET'MAP TEAM :

Programmation & Développement : Alexandra Zaïnal
Sur une idée originale de : Baudouin d'Aumeries
Assistance à la programmation : Marc-Olivier Méhu
Soutien technique & logistique : Manuel Goepfert

Contact : metmap@orbifly.com




SOURCES & CREDITS :

   NOAA       Earth
Advisory